createdAt,value
2024-03-25T00:00:33.758Z,21.15
2024-03-25T00:01:33.803Z,21.15
2024-03-25T00:02:33.892Z,21.15
2024-03-25T00:03:33.933Z,21.15
2024-03-25T00:04:34.006Z,21.15
2024-03-25T00:05:34.065Z,21.16
2024-03-25T00:06:34.133Z,21.16
2024-03-25T00:07:34.198Z,21.16
2024-03-25T00:08:34.275Z,21.13
2024-03-25T00:09:34.347Z,21.15
2024-03-25T00:10:34.409Z,21.13
2024-03-25T00:11:34.469Z,21.13
2024-03-25T00:12:34.533Z,21.15
2024-03-25T00:13:34.603Z,21.16
2024-03-25T00:14:34.658Z,21.13
2024-03-25T00:15:34.705Z,21.15
2024-03-25T00:16:34.773Z,21.15
2024-03-25T00:17:34.837Z,21.15
2024-03-25T00:18:34.892Z,21.15
2024-03-25T00:19:34.958Z,21.13
2024-03-25T00:20:35.040Z,21.13
2024-03-25T00:21:35.081Z,21.13
2024-03-25T00:22:35.125Z,21.13
2024-03-25T00:23:35.181Z,21.13
2024-03-25T00:24:35.253Z,21.15
2024-03-25T00:25:35.308Z,21.11
2024-03-25T00:26:35.384Z,21.13
2024-03-25T00:27:35.452Z,21.12
2024-03-25T00:28:35.526Z,21.12
2024-03-25T00:29:35.571Z,21.13
2024-03-25T00:30:35.651Z,21.12
2024-03-25T00:31:35.703Z,21.11
2024-03-25T00:32:35.763Z,21.12
2024-03-25T00:33:35.839Z,21.12
2024-03-25T00:34:35.921Z,21.09
2024-03-25T00:35:35.941Z,21.11
2024-03-25T00:36:35.999Z,21.11
2024-03-25T00:37:36.067Z,21.11
2024-03-25T00:38:36.139Z,21.09
2024-03-25T00:39:37.061Z,21.08
2024-03-25T00:40:36.226Z,21.12
2024-03-25T00:41:36.261Z,21.11
2024-03-25T00:42:36.294Z,21.12
2024-03-25T00:43:36.316Z,21.09
2024-03-25T00:44:36.354Z,21.11
2024-03-25T00:45:36.363Z,21.11
2024-03-25T00:46:36.399Z,21.11
2024-03-25T00:47:36.438Z,21.11
2024-03-25T00:48:36.452Z,21.11
2024-03-25T00:49:36.483Z,21.09
2024-03-25T00:50:36.518Z,21.09
2024-03-25T00:51:36.541Z,21.09
2024-03-25T00:52:36.589Z,21.11
2024-03-25T00:53:36.652Z,21.06
2024-03-25T00:54:36.743Z,21.08
2024-03-25T00:55:36.807Z,21.09
2024-03-25T00:56:36.880Z,21.11
2024-03-25T00:57:36.947Z,21.09
2024-03-25T00:58:37.018Z,21.08
2024-03-25T00:59:37.075Z,21.09
2024-03-25T01:00:37.147Z,21.09
2024-03-25T01:01:37.213Z,21.08
2024-03-25T01:02:37.272Z,21.08
2024-03-25T01:03:37.332Z,21.06
2024-03-25T01:04:37.414Z,21.06
2024-03-25T01:05:37.508Z,21.05
2024-03-25T01:06:37.556Z,21.08
2024-03-25T01:07:37.603Z,21.08
2024-03-25T01:08:37.676Z,21.08
2024-03-25T01:09:37.757Z,21.05
2024-03-25T01:10:37.823Z,21.06
2024-03-25T01:11:37.878Z,21.05
2024-03-25T01:12:37.958Z,21.08
2024-03-25T01:13:38.031Z,21.08
2024-03-25T01:14:38.099Z,21.06
2024-03-25T01:15:38.173Z,21.08
2024-03-25T01:16:38.234Z,21.06
2024-03-25T01:17:38.296Z,21.06
2024-03-25T01:18:38.359Z,21.08
2024-03-25T01:19:38.437Z,21.05
2024-03-25T01:20:38.501Z,21.06
2024-03-25T01:21:38.561Z,21.06
2024-03-25T01:22:38.630Z,21.06
2024-03-25T01:23:38.697Z,21.08
2024-03-25T01:24:38.744Z,21.05
2024-03-25T01:25:38.819Z,21.05
2024-03-25T01:26:38.866Z,21.05
2024-03-25T01:27:38.934Z,21.05
2024-03-25T01:28:39.011Z,21.05
2024-03-25T01:29:39.060Z,21.06
2024-03-25T01:30:39.137Z,21.05
2024-03-25T01:31:39.216Z,21.08
2024-03-25T01:32:39.269Z,21.06
2024-03-25T01:33:39.322Z,21.06
2024-03-25T01:34:39.395Z,21.08
2024-03-25T01:35:39.469Z,21.03
2024-03-25T01:36:39.514Z,21.06
2024-03-25T01:37:39.586Z,21.03
2024-03-25T01:38:39.661Z,21.03
2024-03-25T01:39:39.736Z,21.06
2024-03-25T01:40:39.814Z,21.06
2024-03-25T01:41:39.926Z,21.05
2024-03-25T01:42:39.933Z,21.03
2024-03-25T01:43:40.002Z,21.05
2024-03-25T01:44:40.080Z,21.03
2024-03-25T01:45:40.152Z,21.03
2024-03-25T01:46:40.225Z,21.03
2024-03-25T01:47:40.274Z,21.03
2024-03-25T01:48:40.349Z,21.05
2024-03-25T01:49:40.424Z,21.03
2024-03-25T01:50:40.500Z,21.03
2024-03-25T01:51:40.565Z,21.02
2024-03-25T01:52:40.637Z,21.02
2024-03-25T01:53:40.697Z,21.03
2024-03-25T01:54:40.758Z,21.02
2024-03-25T01:55:40.838Z,21.02
2024-03-25T01:56:40.907Z,21.03
2024-03-25T01:57:40.966Z,21.02
2024-03-25T01:58:41.026Z,21.01
2024-03-25T01:59:41.095Z,21.02
2024-03-25T02:00:41.165Z,21.02
2024-03-25T02:01:41.215Z,21.03
2024-03-25T02:02:41.294Z,21.03
2024-03-25T02:03:41.345Z,21.02
2024-03-25T02:04:41.415Z,21.02
2024-03-25T02:05:41.484Z,21.03
2024-03-25T02:06:41.552Z,21.01
2024-03-25T02:07:41.609Z,21.01
2024-03-25T02:08:41.680Z,21.01
2024-03-25T02:09:41.755Z,21.02
2024-03-25T02:10:48.259Z,21.03
2024-03-25T02:11:41.829Z,21.02
2024-03-25T02:12:41.831Z,21.01
2024-03-25T02:13:41.812Z,21.03
2024-03-25T02:14:41.818Z,21.05
2024-03-25T02:15:41.822Z,21.03
2024-03-25T02:16:41.844Z,21.01
2024-03-25T02:17:41.837Z,21.01
2024-03-25T02:18:41.823Z,21.01
2024-03-25T02:19:41.820Z,21.01
2024-03-25T02:20:41.841Z,21.03
2024-03-25T02:21:41.846Z,21.02
2024-03-25T02:22:41.843Z,21.02
2024-03-25T02:23:41.839Z,21.03
2024-03-25T02:24:41.848Z,21.02
2024-03-25T02:25:41.849Z,20.99
2024-03-25T02:26:41.841Z,21.02
2024-03-25T02:27:41.857Z,21.02
2024-03-25T02:28:41.842Z,21.03
2024-03-25T02:29:41.853Z,21.01
2024-03-25T02:30:41.856Z,20.99
2024-03-25T02:31:41.879Z,21.02
2024-03-25T02:32:41.862Z,21.01
2024-03-25T02:33:41.844Z,21.01
2024-03-25T02:34:41.850Z,21.01
2024-03-25T02:35:41.846Z,21.01
2024-03-25T02:36:41.859Z,21.02
2024-03-25T02:37:41.859Z,21.02
2024-03-25T02:38:41.868Z,21.01
2024-03-25T02:39:41.881Z,21.02
2024-03-25T02:40:41.865Z,21.01
2024-03-25T02:41:41.872Z,21.01
2024-03-25T02:42:41.867Z,21.01
2024-03-25T02:43:41.908Z,20.99
2024-03-25T02:44:41.888Z,21.01
2024-03-25T02:45:41.870Z,21.02
2024-03-25T02:46:41.896Z,20.99
2024-03-25T02:47:41.869Z,20.99
2024-03-25T02:48:41.874Z,21.01
2024-03-25T02:49:41.896Z,21.01
2024-03-25T02:50:41.895Z,20.99
2024-03-25T02:51:41.899Z,21.01
2024-03-25T02:52:41.907Z,20.98
2024-03-25T02:53:41.893Z,20.99
2024-03-25T02:54:41.898Z,20.98
2024-03-25T02:55:41.892Z,20.98
2024-03-25T02:56:41.906Z,20.99
2024-03-25T02:57:41.900Z,21.01
2024-03-25T02:58:41.908Z,20.98
2024-03-25T02:59:41.891Z,20.99
2024-03-25T03:00:41.892Z,21.01
2024-03-25T03:01:41.904Z,20.98
2024-03-25T03:02:41.906Z,20.99
2024-03-25T03:03:41.913Z,20.98
2024-03-25T03:04:41.909Z,20.99
2024-03-25T03:05:41.910Z,20.99
2024-03-25T03:06:41.921Z,20.99
2024-03-25T03:07:41.913Z,20.99
2024-03-25T03:08:41.906Z,20.97
2024-03-25T03:09:41.918Z,20.98
2024-03-25T03:10:41.940Z,20.97
2024-03-25T03:11:41.933Z,20.97
2024-03-25T03:12:41.969Z,20.97
2024-03-25T03:13:42.001Z,20.97
2024-03-25T03:14:42.052Z,20.97
2024-03-25T03:15:42.092Z,20.98
2024-03-25T03:16:42.164Z,20.97
2024-03-25T03:17:42.240Z,20.98
2024-03-25T03:18:42.316Z,20.95
2024-03-25T03:19:42.368Z,20.95
2024-03-25T03:20:42.432Z,20.97
2024-03-25T03:21:42.508Z,20.95
2024-03-25T03:22:42.580Z,20.98
2024-03-25T03:23:42.658Z,20.97
2024-03-25T03:24:42.713Z,20.95
2024-03-25T03:25:42.779Z,20.95
2024-03-25T03:26:42.849Z,20.97
2024-03-25T03:27:42.922Z,20.95
2024-03-25T03:28:42.980Z,20.95
2024-03-25T03:29:43.048Z,20.97
2024-03-25T03:30:43.114Z,20.97
2024-03-25T03:31:43.186Z,20.95
2024-03-25T03:32:43.254Z,20.94
2024-03-25T03:33:43.305Z,20.97
2024-03-25T03:34:43.381Z,20.95
2024-03-25T03:35:43.456Z,20.95
2024-03-25T03:36:43.502Z,20.94
2024-03-25T03:37:43.578Z,20.95
2024-03-25T03:38:43.650Z,20.94
2024-03-25T03:39:43.720Z,20.94
2024-03-25T03:40:43.791Z,20.91
2024-03-25T03:41:43.863Z,20.97
2024-03-25T03:42:43.948Z,20.95
2024-03-25T03:43:43.995Z,20.94
2024-03-25T03:44:44.062Z,20.94
2024-03-25T03:45:44.136Z,20.94
2024-03-25T03:46:44.207Z,20.92
2024-03-25T03:47:44.281Z,20.95
2024-03-25T03:48:44.342Z,20.91
2024-03-25T03:49:44.427Z,20.92
2024-03-25T03:50:44.499Z,20.91
2024-03-25T03:51:44.578Z,20.92
2024-03-25T03:52:44.660Z,20.95
2024-03-25T03:53:44.710Z,20.92
2024-03-25T03:54:44.804Z,20.92
2024-03-25T03:55:44.858Z,20.90
2024-03-25T03:56:44.940Z,20.94
2024-03-25T03:57:45.028Z,20.91
2024-03-25T03:58:45.094Z,20.92
2024-03-25T03:59:45.205Z,20.92
2024-03-25T04:00:45.238Z,20.88
2024-03-25T04:01:45.311Z,20.90
2024-03-25T04:02:45.414Z,20.88
2024-03-25T04:03:45.481Z,20.90
2024-03-25T04:04:45.557Z,20.88
2024-03-25T04:05:45.616Z,20.88
2024-03-25T04:06:45.687Z,20.88
2024-03-25T04:07:45.762Z,20.90
2024-03-25T04:08:45.832Z,20.88
2024-03-25T04:09:45.917Z,20.85
2024-03-25T04:10:45.984Z,20.88
2024-03-25T04:11:46.061Z,20.88
2024-03-25T04:12:46.134Z,20.88
2024-03-25T04:13:46.216Z,20.87
2024-03-25T04:14:46.306Z,20.88
2024-03-25T04:15:46.386Z,20.85
2024-03-25T04:16:46.458Z,20.85
2024-03-25T04:17:46.539Z,20.85
2024-03-25T04:18:46.583Z,20.88
2024-03-25T04:19:46.664Z,20.85
2024-03-25T04:20:46.733Z,20.85
2024-03-25T04:21:46.812Z,20.87
2024-03-25T04:22:46.885Z,20.84
2024-03-25T04:23:46.986Z,20.85
2024-03-25T04:24:47.031Z,20.88
2024-03-25T04:25:47.098Z,20.87
2024-03-25T04:26:47.180Z,20.85
2024-03-25T04:27:47.254Z,20.85
2024-03-25T04:28:47.322Z,20.87
2024-03-25T04:29:47.391Z,20.85
2024-03-25T04:30:47.479Z,20.87
2024-03-25T04:31:47.554Z,20.87
2024-03-25T04:32:47.631Z,20.85
2024-03-25T04:33:47.696Z,20.87
2024-03-25T04:34:47.775Z,20.87
2024-03-25T04:35:47.854Z,20.84
2024-03-25T04:36:47.936Z,20.84
2024-03-25T04:37:48.018Z,20.81
2024-03-25T04:38:48.084Z,20.84
2024-03-25T04:39:48.165Z,20.84
2024-03-25T04:40:48.245Z,20.83
2024-03-25T04:41:48.352Z,20.83
2024-03-25T04:42:48.390Z,20.83
2024-03-25T04:43:48.500Z,20.83
2024-03-25T04:44:48.545Z,20.83
2024-03-25T04:45:48.752Z,20.84
2024-03-25T04:46:56.018Z,20.83
2024-03-25T04:47:56.040Z,20.81
2024-03-25T04:48:56.022Z,20.84
2024-03-25T04:49:56.015Z,20.83
2024-03-25T04:50:56.020Z,20.83
2024-03-25T04:51:56.035Z,20.80
2024-03-25T04:52:56.028Z,20.81
2024-03-25T04:53:56.030Z,20.83
2024-03-25T04:54:56.083Z,20.83
2024-03-25T04:55:56.022Z,20.81
2024-03-25T04:56:56.024Z,20.83
2024-03-25T04:57:56.027Z,20.83
2024-03-25T04:58:56.029Z,20.81
2024-03-25T04:59:56.034Z,20.83
2024-03-25T05:00:56.028Z,20.83
2024-03-25T05:01:56.019Z,20.84
2024-03-25T05:02:56.024Z,20.81
2024-03-25T05:03:56.034Z,20.83
2024-03-25T05:04:56.075Z,20.81
2024-03-25T05:05:56.075Z,20.81
2024-03-25T05:06:56.075Z,20.78
2024-03-25T05:07:56.091Z,20.81
2024-03-25T05:08:56.081Z,20.80
2024-03-25T05:09:56.074Z,20.80
2024-03-25T05:10:56.088Z,20.83
2024-03-25T05:11:56.084Z,20.83
2024-03-25T05:12:56.097Z,20.80
2024-03-25T05:13:56.097Z,20.81
2024-03-25T05:14:56.078Z,20.80
2024-03-25T05:15:56.080Z,20.80
2024-03-25T05:16:56.081Z,20.80
2024-03-25T05:17:56.089Z,20.81
2024-03-25T05:18:56.076Z,20.78
2024-03-25T05:19:56.097Z,20.80
2024-03-25T05:20:56.106Z,20.83
2024-03-25T05:21:56.090Z,20.81
2024-03-25T05:22:56.087Z,20.80
2024-03-25T05:23:56.098Z,20.80
2024-03-25T05:24:56.104Z,20.78
2024-03-25T05:25:56.184Z,20.80
2024-03-25T05:26:56.262Z,20.80
2024-03-25T05:27:56.373Z,20.81
2024-03-25T05:28:56.433Z,20.80
2024-03-25T05:29:56.508Z,20.80
2024-03-25T05:30:56.564Z,20.80
2024-03-25T05:31:56.657Z,20.78
2024-03-25T05:32:56.781Z,20.81
2024-03-25T05:33:56.836Z,20.77
2024-03-25T05:34:57.138Z,20.78
2024-03-25T05:35:56.967Z,20.77
2024-03-25T05:36:57.043Z,20.80
2024-03-25T05:37:57.135Z,20.78
2024-03-25T05:38:57.220Z,20.78
2024-03-25T05:39:57.299Z,20.80
2024-03-25T05:40:57.385Z,20.78
2024-03-25T05:41:57.454Z,20.78
2024-03-25T05:42:57.526Z,20.78
2024-03-25T05:43:57.605Z,20.80
2024-03-25T05:44:57.699Z,20.76
2024-03-25T05:45:57.758Z,20.78
2024-03-25T05:46:57.832Z,20.77
2024-03-25T05:47:57.907Z,20.77
2024-03-25T05:48:58.001Z,20.77
2024-03-25T05:49:58.086Z,20.77
2024-03-25T05:50:58.153Z,20.77
2024-03-25T05:51:58.227Z,20.78
2024-03-25T05:52:58.309Z,20.77
2024-03-25T05:53:58.379Z,20.77
2024-03-25T05:54:58.468Z,20.77
2024-03-25T05:55:58.563Z,20.76
2024-03-25T05:56:58.641Z,20.76
2024-03-25T05:57:58.717Z,20.76
2024-03-25T05:58:58.798Z,20.78
2024-03-25T05:59:58.878Z,20.76
2024-03-25T06:00:58.942Z,20.77
2024-03-25T06:01:59.020Z,20.77
2024-03-25T06:02:59.102Z,20.77
2024-03-25T06:03:59.190Z,20.77
2024-03-25T06:04:59.252Z,20.78
2024-03-25T06:05:59.327Z,20.76
2024-03-25T06:06:59.416Z,20.76
2024-03-25T06:07:59.505Z,20.77
2024-03-25T06:08:59.571Z,20.74
2024-03-25T06:10:02.211Z,20.77
2024-03-25T06:10:59.760Z,20.76
2024-03-25T06:11:59.797Z,20.77
2024-03-25T06:12:59.834Z,20.77
2024-03-25T06:13:59.899Z,20.77
2024-03-25T06:14:59.896Z,20.76
2024-03-25T06:15:59.944Z,20.74
2024-03-25T06:16:59.992Z,20.77
2024-03-25T06:18:00.027Z,20.76
2024-03-25T06:19:00.071Z,20.76
2024-03-25T06:20:00.154Z,20.77
2024-03-25T06:21:00.175Z,20.76
2024-03-25T06:22:00.185Z,20.74
2024-03-25T06:23:00.217Z,20.78
2024-03-25T06:24:00.255Z,20.74
2024-03-25T06:25:00.290Z,20.76
2024-03-25T06:26:00.366Z,20.77
2024-03-25T06:27:00.378Z,20.77
2024-03-25T06:28:00.402Z,20.74
2024-03-25T06:29:00.464Z,20.77
2024-03-25T06:30:00.549Z,20.77
2024-03-25T06:31:00.620Z,20.76
2024-03-25T06:32:00.724Z,20.77
2024-03-25T06:33:00.771Z,20.76
2024-03-25T06:34:00.843Z,20.77
2024-03-25T06:35:00.922Z,20.77
2024-03-25T06:36:00.996Z,20.80
2024-03-25T06:37:01.090Z,20.77
2024-03-25T06:38:01.165Z,20.80
2024-03-25T06:39:01.266Z,20.80
2024-03-25T06:40:01.322Z,20.78
2024-03-25T06:41:01.401Z,20.80
2024-03-25T06:42:01.462Z,20.80
2024-03-25T06:43:01.562Z,20.80
2024-03-25T06:44:01.619Z,20.81
2024-03-25T06:45:01.706Z,20.83
2024-03-25T06:46:08.449Z,20.80
2024-03-25T06:47:01.780Z,20.83
2024-03-25T06:48:01.804Z,20.84
2024-03-25T06:49:01.782Z,20.83
2024-03-25T06:50:01.776Z,20.81
2024-03-25T06:51:03.442Z,20.84
2024-03-25T06:52:01.790Z,20.83
2024-03-25T06:53:01.793Z,20.83
2024-03-25T06:54:01.779Z,20.83
2024-03-25T06:55:01.792Z,20.85
2024-03-25T06:56:01.779Z,20.85
2024-03-25T06:57:01.783Z,20.85
2024-03-25T06:58:01.790Z,20.87
2024-03-25T06:59:01.786Z,20.87
2024-03-25T07:00:01.847Z,20.87
2024-03-25T07:01:01.795Z,20.88
2024-03-25T07:02:01.821Z,20.85
2024-03-25T07:03:01.785Z,20.90
2024-03-25T07:04:01.804Z,20.88
2024-03-25T07:05:01.813Z,20.90
2024-03-25T07:06:01.809Z,20.88
2024-03-25T07:07:01.798Z,20.88
2024-03-25T07:08:01.796Z,20.92
2024-03-25T07:09:01.817Z,20.88
2024-03-25T07:10:01.818Z,20.91
2024-03-25T07:11:01.799Z,20.91
2024-03-25T07:12:01.811Z,20.92
2024-03-25T07:13:01.820Z,20.92
2024-03-25T07:14:01.847Z,20.94
2024-03-25T07:15:01.896Z,20.90
2024-03-25T07:16:01.975Z,20.92
2024-03-25T07:17:02.026Z,20.95
2024-03-25T07:18:02.074Z,20.95
2024-03-25T07:19:02.136Z,20.97
2024-03-25T07:20:02.218Z,20.95
2024-03-25T07:21:02.267Z,20.95
2024-03-25T07:22:02.364Z,20.98
2024-03-25T07:23:02.422Z,20.98
2024-03-25T07:24:02.476Z,20.97
2024-03-25T07:25:02.554Z,20.99
2024-03-25T07:26:02.598Z,20.98
2024-03-25T07:27:02.669Z,21.01
2024-03-25T07:28:02.725Z,21.01
2024-03-25T07:29:02.790Z,21.03
2024-03-25T07:30:02.859Z,21.05
2024-03-25T07:31:02.929Z,21.06
2024-03-25T07:32:03.010Z,21.05
2024-03-25T07:33:03.054Z,21.08
2024-03-25T07:34:03.124Z,21.06
2024-03-25T07:35:03.195Z,21.06
2024-03-25T07:36:03.269Z,21.06
2024-03-25T07:37:03.373Z,21.09
2024-03-25T07:38:03.407Z,21.11
2024-03-25T07:39:03.455Z,21.12
2024-03-25T07:40:03.566Z,21.11
2024-03-25T07:41:03.576Z,21.12
2024-03-25T07:42:03.626Z,21.13
2024-03-25T07:43:03.690Z,21.15
2024-03-25T07:44:03.761Z,21.15
2024-03-25T07:45:03.824Z,21.15
2024-03-25T07:46:03.894Z,21.19
2024-03-25T07:47:03.937Z,21.18
2024-03-25T07:48:04.015Z,21.21
2024-03-25T07:49:04.070Z,21.21
2024-03-25T07:50:04.150Z,21.22
2024-03-25T07:51:04.214Z,21.21
2024-03-25T07:52:04.258Z,21.23
2024-03-25T07:53:04.340Z,21.23
2024-03-25T07:54:04.384Z,21.25
2024-03-25T07:55:04.453Z,21.25
2024-03-25T07:56:04.602Z,21.28
2024-03-25T07:57:04.584Z,21.30
2024-03-25T07:58:04.658Z,21.32
2024-03-25T07:59:04.738Z,21.30
2024-03-25T08:00:04.810Z,21.32
2024-03-25T08:01:04.908Z,21.35
2024-03-25T08:02:04.949Z,21.37
2024-03-25T08:03:05.005Z,21.39
2024-03-25T08:04:05.054Z,21.37
2024-03-25T08:05:05.131Z,21.40
2024-03-25T08:06:05.255Z,21.44
2024-03-25T08:07:05.244Z,21.43
2024-03-25T08:08:05.299Z,21.46
2024-03-25T08:09:05.380Z,21.44
2024-03-25T08:10:05.455Z,21.44
2024-03-25T08:11:05.576Z,21.49
2024-03-25T08:12:05.565Z,21.47
2024-03-25T08:13:05.733Z,21.52
2024-03-25T08:14:05.738Z,21.53
2024-03-25T08:15:05.763Z,21.53
2024-03-25T08:16:05.933Z,21.56
2024-03-25T08:17:05.902Z,21.54
2024-03-25T08:18:05.966Z,21.58
2024-03-25T08:19:06.033Z,21.56
2024-03-25T08:20:06.126Z,21.58
2024-03-25T08:21:06.165Z,21.58
2024-03-25T08:22:06.243Z,21.58
2024-03-25T08:23:06.363Z,21.63
2024-03-25T08:24:06.426Z,21.63
2024-03-25T08:25:06.508Z,21.63
2024-03-25T08:26:06.612Z,21.64
2024-03-25T08:27:06.596Z,21.65
2024-03-25T08:28:06.667Z,21.65
2024-03-25T08:29:06.791Z,21.68
2024-03-25T08:30:06.853Z,21.65
2024-03-25T08:31:06.884Z,21.67
2024-03-25T08:32:06.993Z,21.67
2024-03-25T08:33:07.016Z,21.70
2024-03-25T08:34:07.104Z,21.73
2024-03-25T08:35:07.303Z,21.73
2024-03-25T08:36:07.238Z,21.71
2024-03-25T08:37:07.303Z,21.74
2024-03-25T08:38:07.345Z,21.77
2024-03-25T08:39:08.080Z,21.77
2024-03-25T08:40:07.498Z,21.77
2024-03-25T08:41:07.577Z,21.77
2024-03-25T08:42:07.711Z,21.81
2024-03-25T08:43:07.756Z,21.80
2024-03-25T08:44:07.842Z,21.84
2024-03-25T08:45:07.980Z,21.81
2024-03-25T08:46:08.047Z,21.81
2024-03-25T08:47:08.111Z,21.80
2024-03-25T08:48:08.131Z,21.80
2024-03-25T08:49:08.227Z,21.80
2024-03-25T08:50:08.319Z,21.81
2024-03-25T08:51:08.374Z,21.81
2024-03-25T08:52:08.483Z,21.84
2024-03-25T08:53:08.559Z,21.82
2024-03-25T08:54:08.650Z,21.85
2024-03-25T08:55:08.924Z,21.87
2024-03-25T08:56:08.823Z,21.88
2024-03-25T08:57:08.910Z,21.87
2024-03-25T08:58:09.007Z,21.89
2024-03-25T08:59:09.069Z,21.87
2024-03-25T09:00:09.175Z,21.88
2024-03-25T09:01:09.272Z,21.89
2024-03-25T09:02:10.238Z,21.89
2024-03-25T09:03:09.447Z,21.89
2024-03-25T09:04:13.706Z,21.91
2024-03-25T09:05:10.563Z,21.94
2024-03-25T09:06:09.550Z,21.92
2024-03-25T09:07:09.549Z,21.91
2024-03-25T09:08:09.570Z,21.91
2024-03-25T09:09:09.628Z,21.92
2024-03-25T09:10:09.548Z,21.92
2024-03-25T09:11:09.567Z,21.94
2024-03-25T09:12:09.604Z,21.92
2024-03-25T09:13:09.601Z,21.91
2024-03-25T09:14:09.881Z,21.91
2024-03-25T09:15:09.776Z,21.91
2024-03-25T09:16:09.876Z,21.92
2024-03-25T09:17:09.997Z,21.92
2024-03-25T09:18:10.061Z,21.95
2024-03-25T09:19:10.146Z,21.94
2024-03-25T09:20:10.245Z,21.95
2024-03-25T09:21:10.322Z,21.92
2024-03-25T09:22:10.412Z,21.94
2024-03-25T09:23:10.550Z,21.95
2024-03-25T09:24:10.586Z,21.95
2024-03-25T09:25:10.750Z,21.94
2024-03-25T09:26:10.778Z,21.99
2024-03-25T09:27:10.889Z,22.01
2024-03-25T09:28:10.997Z,21.98
2024-03-25T09:29:11.087Z,21.99
2024-03-25T09:30:11.192Z,21.99
2024-03-25T09:31:11.258Z,22.01
2024-03-25T09:32:11.362Z,22.02
2024-03-25T09:33:11.509Z,22.01
2024-03-25T09:34:11.626Z,22.04
2024-03-25T09:35:11.682Z,22.04
2024-03-25T09:36:11.747Z,22.05
2024-03-25T09:37:11.847Z,22.08
2024-03-25T09:38:11.923Z,22.08
2024-03-25T09:39:12.007Z,22.08
2024-03-25T09:40:12.108Z,22.12
2024-03-25T09:41:12.221Z,22.11
2024-03-25T09:42:12.273Z,22.15
2024-03-25T09:43:12.387Z,22.13
2024-03-25T09:44:12.544Z,22.12
2024-03-25T09:45:12.572Z,22.11
2024-03-25T09:46:12.657Z,22.11
2024-03-25T09:47:12.801Z,22.08
2024-03-25T09:48:12.929Z,22.05
2024-03-25T09:49:12.999Z,22.06
2024-03-25T09:50:13.046Z,22.09
2024-03-25T09:51:13.126Z,22.09
2024-03-25T09:52:13.237Z,22.12
2024-03-25T09:53:13.315Z,22.12
2024-03-25T09:54:13.406Z,22.06
2024-03-25T09:55:13.506Z,22.08
2024-03-25T09:56:13.630Z,22.15
2024-03-25T09:57:13.749Z,22.15
2024-03-25T09:58:13.795Z,22.13
2024-03-25T09:59:13.876Z,22.16
2024-03-25T10:00:13.968Z,22.13
2024-03-25T10:01:14.105Z,22.13
2024-03-25T10:02:14.255Z,22.12
2024-03-25T10:03:14.295Z,22.15
2024-03-25T10:04:14.390Z,22.12
2024-03-25T10:05:14.485Z,22.17
2024-03-25T10:06:14.640Z,22.17
2024-03-25T10:07:14.712Z,22.20
2024-03-25T10:08:14.813Z,22.16
2024-03-25T10:09:14.881Z,22.15
2024-03-25T10:10:15.031Z,22.12
2024-03-25T10:11:15.064Z,22.15
2024-03-25T10:12:15.183Z,22.19
2024-03-25T10:13:15.308Z,22.19
2024-03-25T10:14:15.396Z,22.19
2024-03-25T10:15:15.572Z,22.16
2024-03-25T10:16:15.569Z,22.17
2024-03-25T10:17:15.711Z,22.19
2024-03-25T10:18:15.798Z,22.17
2024-03-25T10:19:15.901Z,22.22
2024-03-25T10:20:16.042Z,22.28
2024-03-25T10:21:16.139Z,22.26
2024-03-25T10:22:16.216Z,22.30
2024-03-25T10:23:16.358Z,22.30
2024-03-25T10:24:16.496Z,22.36
2024-03-25T10:25:16.561Z,22.47
2024-03-25T10:26:16.675Z,22.75
2024-03-25T10:27:16.743Z,23.10
2024-03-25T10:28:16.857Z,23.01
2024-03-25T10:29:17.134Z,23.20
2024-03-25T10:30:17.061Z,23.47
2024-03-25T10:31:17.173Z,23.85
2024-03-25T10:32:17.302Z,24.17
2024-03-25T10:33:17.384Z,24.31
2024-03-25T10:34:17.461Z,24.40
2024-03-25T10:35:17.711Z,24.57
2024-03-25T10:36:17.676Z,24.64
2024-03-25T10:37:17.776Z,24.81
2024-03-25T10:38:17.955Z,24.83
2024-03-25T10:39:17.975Z,24.85
2024-03-25T10:40:18.174Z,24.88
2024-03-25T10:41:18.223Z,24.99
2024-03-25T10:42:18.365Z,25.07
2024-03-25T10:43:18.425Z,25.02
2024-03-25T10:44:18.499Z,24.89
2024-03-25T10:45:18.688Z,24.71
2024-03-25T10:46:18.667Z,24.41
2024-03-25T10:47:18.823Z,24.20
2024-03-25T10:48:18.973Z,23.98
2024-03-25T10:49:18.976Z,23.78
2024-03-25T10:50:19.108Z,23.62
2024-03-25T10:51:19.175Z,23.49
2024-03-25T10:52:19.284Z,23.37
2024-03-25T10:53:19.426Z,23.27
2024-03-25T10:54:19.499Z,23.20
2024-03-25T10:55:19.593Z,23.10
2024-03-25T10:56:19.749Z,23.05
2024-03-25T10:57:19.818Z,23.01
2024-03-25T10:58:19.919Z,22.94
2024-03-25T10:59:20.716Z,22.91
2024-03-25T11:00:20.170Z,22.85
2024-03-25T11:01:20.263Z,22.85
2024-03-25T11:02:20.360Z,22.82
2024-03-25T11:03:20.490Z,22.79
2024-03-25T11:04:20.545Z,22.76
2024-03-25T11:05:21.292Z,22.75
2024-03-25T11:06:20.742Z,22.74
2024-03-25T11:07:20.843Z,22.72
2024-03-25T11:08:21.009Z,22.71
2024-03-25T11:09:21.078Z,22.68
2024-03-25T11:10:21.284Z,22.68
2024-03-25T11:11:21.309Z,22.70
2024-03-25T11:12:21.383Z,22.70
2024-03-25T11:13:21.464Z,22.70
2024-03-25T11:14:21.634Z,22.67
2024-03-25T11:15:21.748Z,22.68
2024-03-25T11:16:21.774Z,22.70
2024-03-25T11:17:21.873Z,22.68
2024-03-25T11:18:21.992Z,22.67
2024-03-25T11:19:22.082Z,22.67
2024-03-25T11:20:22.218Z,22.68
2024-03-25T11:21:22.299Z,22.65
2024-03-25T11:22:22.387Z,22.67
2024-03-25T11:23:22.477Z,22.65
2024-03-25T11:24:22.584Z,22.68
2024-03-25T11:25:22.702Z,22.70
2024-03-25T11:26:22.790Z,22.70
2024-03-25T11:27:22.900Z,22.67
2024-03-25T11:28:22.995Z,22.67
2024-03-25T11:29:23.101Z,22.68
2024-03-25T11:30:23.202Z,22.68
2024-03-25T11:31:23.291Z,22.70
2024-03-25T11:32:23.396Z,22.71
2024-03-25T11:33:23.521Z,22.71
2024-03-25T11:34:23.599Z,22.70
2024-03-25T11:35:23.704Z,22.71
2024-03-25T11:36:23.792Z,22.71
2024-03-25T11:37:23.902Z,22.71
2024-03-25T11:38:23.999Z,22.74
2024-03-25T11:39:24.106Z,22.72
2024-03-25T11:40:24.205Z,22.75
2024-03-25T11:41:24.311Z,22.75
2024-03-25T11:42:24.395Z,22.75
2024-03-25T11:43:24.506Z,22.78
2024-03-25T11:44:24.604Z,22.76
2024-03-25T11:45:24.712Z,22.78
2024-03-25T11:46:24.807Z,22.76
2024-03-25T11:47:24.915Z,22.78
2024-03-25T11:48:25.009Z,22.81
2024-03-25T11:49:25.116Z,22.79
2024-03-25T11:50:25.211Z,22.81
2024-03-25T11:51:25.327Z,22.81
2024-03-25T11:52:25.399Z,22.82
2024-03-25T11:53:25.497Z,22.84
2024-03-25T11:54:25.605Z,22.84
2024-03-25T11:55:25.698Z,22.84
2024-03-25T11:56:25.810Z,22.85
2024-03-25T11:57:26.964Z,22.87
2024-03-25T11:58:25.930Z,22.88
2024-03-25T11:59:25.948Z,22.87
2024-03-25T12:00:25.970Z,22.89
2024-03-25T12:01:26.000Z,22.87
2024-03-25T12:02:26.026Z,22.89
2024-03-25T12:03:39.058Z,22.89
2024-03-25T12:04:27.039Z,22.91
2024-03-25T12:05:26.049Z,22.92
2024-03-25T12:06:26.056Z,22.89
2024-03-25T12:07:26.058Z,22.89
2024-03-25T12:08:26.045Z,22.91
2024-03-25T12:09:26.040Z,22.91
2024-03-25T12:10:26.053Z,22.92
2024-03-25T12:11:26.050Z,22.94
2024-03-25T12:12:26.055Z,22.89
2024-03-25T12:13:26.059Z,22.92
2024-03-25T12:14:26.074Z,22.94
2024-03-25T12:15:26.188Z,22.92
2024-03-25T12:16:26.270Z,22.91
2024-03-25T12:17:26.371Z,22.91
2024-03-25T12:18:26.457Z,22.94
2024-03-25T12:19:26.566Z,22.91
2024-03-25T12:20:26.666Z,22.95
2024-03-25T12:21:26.773Z,22.94
2024-03-25T12:22:26.827Z,22.91
2024-03-25T12:23:26.950Z,22.92
2024-03-25T12:24:27.002Z,22.94
2024-03-25T12:25:27.110Z,22.94
2024-03-25T12:26:27.176Z,22.94
2024-03-25T12:27:27.274Z,22.92
2024-03-25T12:28:27.372Z,22.92
2024-03-25T12:29:27.467Z,22.91
2024-03-25T12:30:27.550Z,22.89
2024-03-25T12:31:27.641Z,22.91
2024-03-25T12:32:28.027Z,22.91
2024-03-25T12:33:27.775Z,22.94
2024-03-25T12:34:27.781Z,22.92
2024-03-25T12:35:27.814Z,22.92
2024-03-25T12:36:27.840Z,22.92
2024-03-25T12:37:27.845Z,22.94
2024-03-25T12:38:27.871Z,22.94
2024-03-25T12:39:27.927Z,22.92
2024-03-25T12:40:27.938Z,22.94
2024-03-25T12:41:27.953Z,22.92
2024-03-25T12:42:27.978Z,22.92
2024-03-25T12:43:34.029Z,22.92
2024-03-25T12:44:29.073Z,22.92
2024-03-25T12:45:28.099Z,22.91
2024-03-25T12:46:28.067Z,22.91
2024-03-25T12:47:28.162Z,22.91
2024-03-25T12:48:28.053Z,22.89
2024-03-25T12:49:28.055Z,22.92
2024-03-25T12:50:28.056Z,22.91
2024-03-25T12:51:28.075Z,22.92
2024-03-25T12:52:28.073Z,22.91
2024-03-25T12:53:28.070Z,22.92